This is the latest recevied weather packets stored in our database for station/object IV3ONZ. If no packets are shown the sender has not sent any weather packets the latest 10 day(s).
| Time | Temp. | Humidity | Pressure | Rain* | Wind** | Luminosity | Snow |
|---|---|---|---|---|---|---|---|
| 1777708805 | 18.89° C | 46% | 1028.3 hPa | 0 mm | - | 629 W/m² | - |
| 1777708504 | 18.89° C | 44% | 1028.2 hPa | 0 mm | - | 612 W/m² | - |
| 1777708204 | 18.89° C | 46% | 1028.2 hPa | 0 mm | - | 598 W/m² | - |
| 1777705204 | 17.78° C | 51% | 1028.5 hPa | 0 mm | - | 337 W/m² | - |
| 1777702804 | 15° C | 57% | 1028.6 hPa | 0 mm | - | 312 W/m² | - |
| 1777700404 | 11.67° C | 67% | 1029 hPa | 0 mm | - | 183 W/m² | - |
| 1777698304 | 9.44° C | 71% | 1028.9 hPa | 0 mm | - | 92 W/m² | - |
| 1777697404 | 9.44° C | 72% | 1028.7 hPa | 0 mm | - | 61 W/m² | - |
| 1777695304 | 7.22° C | 77% | 1028.4 hPa | 0 mm | - | 18 W/m² | - |
| 1777693804 | 7.78° C | 75% | 1028.9 hPa | 0 mm | - | 3 W/m² | - |
| 1777692604 | 8.33° C | 74% | 1028.5 hPa | 0 mm | - | 0 W/m² | - |
| 1777690804 | 7.78° C | 76% | 1028.8 hPa | 0 mm | - | 0 W/m² | - |
| 1777686003 | 7.78° C | 77% | 1029 hPa | 0 mm | - | 0 W/m² | - |
| 1777685404 | 8.33° C | 76% | 1028.9 hPa | 0 mm | - | 0 W/m² | - |
| 1777684804 | 8.33° C | 74% | 1028.7 hPa | 0 mm | - | 0 W/m² | - |
| 1777684036 | 8.89° C | 73% | 1028.9 hPa | 0 mm | - | 0 W/m² | - |
| 1777680304 | 10° C | 67% | 1028.9 hPa | 0 mm | - | 0 W/m² | - |
| 1777680007 | 10.56° C | 65% | 1029.2 hPa | 0 mm | - | 0 W/m² | - |
| 1777679704 | 10.56° C | 62% | 1029 hPa | 0 mm | - | 0 W/m² | - |
| 1777678804 | 9.44° C | 66% | 1029.3 hPa | 0 mm | - | 0 W/m² | - |
| 1777675803 | 10.56° C | 65% | 1029.3 hPa | 0 mm | - | 0 W/m² | - |
| 1777674006 | 11.67° C | 70% | 1029.2 hPa | 0 mm | - | 0 W/m² | - |
| 1777671304 | 12.22° C | 68% | 1029.1 hPa | 0 mm | - | 0 W/m² | - |
| 1777671004 | 12.22° C | 68% | 1028.9 hPa | 0 mm | - | 0 W/m² | - |
| 1777670704 | 12.78° C | 67% | 1029.1 hPa | 0 mm | - | 0 W/m² | - |
* Rain latest hour (hover to see other rain measurements)
** Current wind speed in m/s (hover to see current wind gust speed)